Latest Weather Observations for East Sale

IDV60801

Issued at 4:02 am EDT Sunday 1 March 2015 (issued every 30 minutes, with the page automatically refreshed every 10 minutes)

About weather observations | Map of weather stations | Latest weather observations for VIC | Other Formats
Station Details ID: 085072 Name: EAST SALE AIRPORT Lat: -38.12 Lon: 147.13 Height: 4.6 m
Data from the previous 72 hours. | See also: Recent months at East Sale
Date/Time
EDT
Temp
°C
App
Temp
°C
Dew
Point
Rel
Hum
%
Delta-T
°C
Wind Press
QNH
hPa
Press
MSL
hPa
Rain
since 9 am
mm
Dir
 
Spd
km/h
Gust
km/h
Spd
kts
Gust
kts
01/04:00am 18.2 19.0 17.2 94 0.6 W 9 13 5 7 1003.4 1003.4 3.0
01/03:30am 18.2 17.9 17.4 95 0.5 WSW 15 20 8 11 1003.6 1003.6 3.0
01/03:00am 18.2 17.8 17.2 94 0.6 WSW 15 20 8 11 1003.2 1003.2 3.0
01/02:30am 18.2 19.0 17.2 94 0.6 WSW 9 15 5 8 1003.3 1003.3 2.8
01/02:07am 18.2 18.2 17.2 94 0.6 SW 13 17 7 9 1003.6 1003.6 2.4
01/02:00am 18.3 19.0 17.1 93 0.7 S 9 13 5 7 1003.5 1003.5 2.4
01/01:42am 18.5 18.1 17.2 92 0.8 WSW 15 24 8 13 1004.7 1004.7 1.8
01/01:30am 18.6 16.9 17.1 91 0.9 WSW 22 33 12 18 1005.3 1005.3 1.2
01/01:00am 19.4 19.7 17.0 86 1.5 WSW 11 15 6 8 1004.8 1004.8 0.6
01/12:30am 20.4 17.7 16.6 79 2.3 WSW 26 39 14 21 1005.0 1005.0 0.0
01/12:00am 22.0 20.3 16.3 70 3.5 WSW 20 32 11 17 1004.9 1004.9 0.0
 
Date/Time
EDT
Temp
°C
App
Temp
°C
Dew
Point
Rel
Hum
%
Delta-T
°C
Wind Press
QNH
hPa
Press
MSL
hPa
Rain
since 9 am
mm
Dir
 
Spd
km/h
Gust
km/h
Spd
kts
Gust
kts
28/11:32pm 21.9 18.5 16.8 73 3.1 W 30 48 16 26 1003.9 1003.9 0.0
28/11:30pm 21.9 19.0 17.1 74 2.9 W 28 39 15 21 1003.8 1003.8 0.0
28/11:00pm 22.1 20.0 17.2 74 3.0 WNW 24 35 13 19 1002.9 1002.9 0.0
28/10:46pm 21.1 21.6 17.5 80 2.2 NNE 11 59 6 32 1003.0 1003.0 0.0
28/10:30pm 20.9 21.6 17.9 83 1.9 ENE 11 13 6 7 1000.7 1000.7 0.0
28/10:00pm 20.5 20.2 17.3 82 2.0 ENE 15 19 8 10 1001.1 1001.1 0.0
28/09:30pm 19.4 18.6 16.1 81 2.0 ENE 15 17 8 9 1001.7 1001.7 0.0
28/09:00pm 19.9 18.9 16.5 81 2.1 NE 17 20 9 11 1001.9 1001.9 0.0
28/08:30pm 20.1 19.5 16.7 81 2.1 ENE 15 17 8 9 1002.2 1002.2 0.0
28/08:00pm 21.7 21.6 17.9 79 2.4 ENE 15 19 8 10 1002.5 1002.5 0.0
28/07:30pm 23.8 23.7 17.8 69 3.8 ENE 15 20 8 11 1002.6 1002.6 0.0
28/07:00pm 24.6 25.3 18.8 70 3.7 ENE 13 17 7 9 1003.2 1003.2 0.0
28/06:30pm 24.5 24.9 18.9 71 3.6 E 15 19 8 10 1003.2 1003.2 0.0
28/06:00pm 24.9 24.7 18.6 68 4.0 ENE 17 22 9 12 1003.5 1003.5 0.0
28/05:30pm 25.2 25.7 19.3 70 3.8 NE 15 17 8 9 1003.5 1003.5 0.0
28/05:00pm 24.6 25.5 18.3 68 4.0 NE 11 17 6 9 1003.9 1003.9 0.0
28/04:30pm 25.3 26.4 18.0 64 4.6 NNE 9 11 5 6 1004.2 1004.2 0.0
28/04:00pm 25.5 26.9 17.9 63 4.8 N 7 11 4 6 1004.3 1004.3 0.0
28/03:30pm 25.1 25.4 17.0 60 5.0 W 11 17 6 9 1004.7 1004.7 0.0
28/03:00pm 24.3 25.2 17.5 66 4.2 WSW 9 13 5 7 1005.1 1005.1 0.0
28/02:30pm 23.9 24.5 17.6 68 3.9 WSW 11 15 6 8 1005.4 1005.4 0.0
28/02:00pm 24.3 24.9 17.8 67 4.1 WSW 11 15 6 8 1005.5 1005.5 0.0
28/01:30pm 24.9 25.2 16.9 61 4.9 W 11 17 6 9 1005.4 1005.4 0.0
28/01:00pm 25.3 25.9 16.7 59 5.3 WNW 9 15 5 8 1005.6 1005.6 0.0
28/12:30pm 24.7 25.3 16.9 62 4.8 NW 9 15 5 8 1006.0 1006.0 0.0
28/12:00pm 24.4 24.8 16.4 61 4.9 NW 9 15 5 8 1006.3 1006.3 0.0
28/11:30am 23.6 24.5 17.6 69 3.7 N 9 15 5 8 1006.7 1006.7 0.0
28/11:00am 22.2 22.4 16.7 71 3.4 N 11 15 6 8 1007.1 1007.1 0.0
28/10:30am 21.2 21.6 16.2 73 3.0 NE 9 15 5 8 1007.4 1007.4 0.0
28/10:00am 20.5 20.7 15.7 74 2.9 ENE 9 13 5 7 1007.7 1007.7 0.0
28/09:30am 19.8 19.2 15.7 77 2.4 NE 13 17 7 9 1008.1 1008.1 0.0
28/09:00am 18.8 18.7 16.0 84 1.7 NNE 11 15 6 8 1008.1 1008.1 0.0
28/08:30am 18.0 17.2 16.0 88 1.2 NE 15 20 8 11 1007.6 1007.6 0.0
28/08:00am 17.3 17.9 15.8 91 0.9 N 7 9 4 5 1007.9 1007.9 0.0
28/07:30am 16.3 16.5 15.7 96 0.4 NE 9 11 5 6 1007.7 1007.7 0.0
28/07:00am 16.2 15.5 15.4 95 0.5 NE 13 15 7 8 1007.8 1007.8 0.0
28/06:30am 16.4 16.2 15.6 95 0.5 NE 11 13 6 7 1008.1 1008.1 0.0
28/06:00am 15.5 14.9 14.7 95 0.5 NE 11 13 6 7 1008.3 1008.3 0.0
28/05:30am 15.8 16.0 14.8 94 0.6 NNE 7 9 4 5 1008.6 1008.6 0.0
28/05:00am 16.4 18.1 15.1 92 0.8 CALM 0 0 0 0 1009.0 1009.0 0.0
28/04:30am 16.6 17.3 15.5 93 0.6 NE 6 9 3 5 1008.7 1008.7 0.0
28/04:00am 16.7 18.5 15.4 92 0.8 CALM 0 6 0 3 1009.5 1009.5 0.0
28/03:42am 16.8 18.5 15.3 91 0.9 CALM 0 0 0 0 1009.5 1009.5 0.0
28/03:30am 16.9 18.3 15.4 91 0.9 NW 2 6 1 3 1009.9 1009.9 0.0
28/03:16am 16.6 17.2 15.3 92 0.8 N 6 7 3 4 1010.1 1010.1 0.0
28/03:00am 16.6 17.1 15.0 90 0.9 ENE 6 6 3 3 1010.0 1010.0 0.0
28/02:30am 16.7 17.0 15.1 90 0.9 E 7 9 4 5 1010.1 1010.1 0.0
28/02:00am 17.2 17.6 15.2 88 1.2 SE 7 9 4 5 1010.6 1010.6 0.0
28/01:30am 17.4 17.4 15.2 87 1.3 SE 9 11 5 6 1011.0 1011.0 0.0
28/01:00am 17.5 17.8 15.1 86 1.4 SE 7 9 4 5 1011.2 1011.2 0.0
28/12:30am 17.4 17.4 15.2 87 1.3 SE 9 11 5 6 1011.3 1011.3 0.0
28/12:00am 17.2 17.5 15.0 87 1.3 SSE 7 9 4 5 1011.3 1011.3 0.0
 
Date/Time
EDT
Temp
°C
App
Temp
°C
Dew
Point
Rel
Hum
%
Delta-T
°C
Wind Press
QNH
hPa
Press
MSL
hPa
Rain
since 9 am
mm
Dir
 
Spd
km/h
Gust
km/h
Spd
kts
Gust
kts
27/11:30pm 17.3 17.6 15.1 87 1.3 SSE 7 11 4 6 1011.5 1011.5 0.0
27/11:00pm 17.7 17.3 15.1 85 1.5 SSE 11 15 6 8 1011.2 1011.2 0.0
27/10:30pm 17.7 16.9 15.0 84 1.6 SSE 13 17 7 9 1011.5 1011.5 0.0
27/10:00pm 17.8 17.4 15.2 85 1.5 SSE 11 17 6 9 1011.6 1011.6 0.0
27/09:30pm 18.0 17.3 15.3 84 1.6 SSE 13 17 7 9 1011.6 1011.6 0.0
27/09:00pm 17.6 17.7 15.4 87 1.3 SE 9 11 5 6 1010.9 1010.9 0.0
27/08:30pm 18.0 17.6 15.3 84 1.6 SSE 11 15 6 8 1010.8 1010.8 0.0
27/08:00pm 18.5 17.7 15.2 81 1.9 SE 13 19 7 10 1010.5 1010.5 0.0
27/07:30pm 18.9 17.1 15.4 80 2.1 SSE 19 24 10 13 1010.7 1010.7 0.0
27/07:00pm 19.3 17.5 15.4 78 2.3 SE 19 26 10 14 1009.8 1009.8 0.0
27/06:30pm 20.0 18.2 15.4 75 2.7 SE 19 24 10 13 1010.1 1010.1 0.0
27/06:00pm 21.2 19.1 15.3 69 3.5 SE 20 30 11 16 1010.2 1010.2 0.0
27/05:30pm 20.8 18.1 14.7 68 3.6 SE 22 32 12 17 1009.6 1009.6 0.0
27/05:00pm 22.0 19.6 14.4 62 4.5 SE 20 32 11 17 1009.7 1009.7 0.0
27/04:30pm 23.3 20.9 14.3 57 5.3 SE 20 26 11 14 1009.5 1009.5 0.0
27/04:00pm 23.5 20.9 15.0 59 5.1 SE 22 33 12 18 1009.2 1009.2 0.0
27/03:30pm 23.8 21.2 15.0 57 5.3 SSE 22 30 12 16 1009.4 1009.4 0.0
27/03:00pm 24.8 24.4 15.1 54 5.8 SW 11 19 6 10 1009.3 1009.3 0.0
27/02:30pm 24.3 23.5 12.9 49 6.6 S 9 15 5 8 1009.4 1009.4 0.0
27/02:00pm 23.9 23.4 13.7 53 6.0 W 9 15 5 8 1009.8 1009.8 0.0
27/01:30pm 23.5 23.1 14.2 56 5.5 WSW 9 15 5 8 1010.2 1010.2 0.0
27/01:00pm 21.9 21.6 14.3 62 4.5 WNW 9 17 5 9 1010.6 1010.6 0.0
27/12:30pm 22.3 22.1 15.6 66 4.0 SW 11 17 6 9 1011.0 1011.0 0.0
27/12:00pm 20.8 20.7 14.9 69 3.5 WNW 9 13 5 7 1011.2 1011.2 0.0
27/11:30am 20.3 19.7 14.7 70 3.3 W 11 17 6 9 1011.4 1011.4 0.0
27/11:00am 20.2 20.4 14.8 71 3.2 WNW 7 13 4 7 1011.4 1011.4 0.0
27/10:30am 19.9 19.7 14.7 72 3.0 WNW 9 11 5 6 1011.5 1011.5 0.0
27/10:00am 18.7 19.1 15.4 81 1.9 W 7 11 4 6 1011.4 1011.4 0.0
27/09:30am 17.5 18.2 15.5 88 1.2 WSW 6 9 3 5 1011.3 1011.3 0.0
27/09:00am 16.4 16.7 15.1 92 0.8 SW 7 9 4 5 1011.2 1011.2 0.0
27/08:30am 15.8 16.0 14.8 94 0.6 WSW 7 9 4 5 1011.2 1011.2 0.0
27/08:00am 15.6 16.7 14.6 94 0.6 WSW 2 7 1 4 1010.8 1010.8 0.0
27/07:30am 15.6 16.0 14.8 95 0.5 WSW 6 7 3 4 1010.9 1010.9 0.0
27/07:00am 15.2 15.0 14.6 96 0.3 S 9 11 5 6 1010.4 1010.4 0.0
27/06:30am 15.1 14.5 14.6 97 0.3 S 11 13 6 7 1010.3 1010.3 0.0
27/06:00am 14.5 14.1 14.2 98 0.2 SSW 9 11 5 6 1010.1 1010.1 0.0
27/05:30am 14.0 13.1 13.7 98 0.2 SSW 11 11 6 6 1010.1 1010.1 0.0
27/05:12am 13.5 13.2 13.2 98 0.2 SSW 7 7 4 4 1010.1 1010.1 0.0
27/05:00am 12.2 11.6 11.7 97 0.3 SW 6 7 3 4 1010.1 1010.1 0.0
27/04:52am 12.0 11.7 11.4 96 0.3 SW 4 6 2 3 1010.1 1010.1 0.0
27/04:30am 12.0 12.4 11.4 96 0.3 CALM 0 0 0 0 1010.2 1010.2 0.0
27/04:00am 12.7 12.2 12.2 97 0.3 WNW 6 7 3 4 1010.3 1010.3 0.0
27/03:30am 13.6 13.4 13.0 96 0.3 SSE 6 7 3 4 1010.3 1010.3 0.0
27/03:00am 13.7 13.9 13.1 96 0.3 E 4 7 2 4 1010.8 1010.8 0.0
27/02:30am 13.9 13.8 13.3 96 0.3 E 6 6 3 3 1011.1 1011.1 0.0
27/02:00am 13.9 14.1 13.1 95 0.4 E 4 6 2 3 1011.3 1011.3 0.0
27/01:30am 14.2 15.2 13.2 94 0.6 CALM 0 0 0 0 1011.5 1011.5 0.0
27/01:00am 14.3 15.3 13.3 94 0.6 CALM 0 0 0 0 1011.8 1011.8 0.0
27/12:30am 14.9 16.0 13.6 92 0.7 CALM 0 6 0 3 1011.8 1011.8 0.0
27/12:00am 15.9 16.3 14.8 93 0.6 SE 6 11 3 6 1011.7 1011.7 0.0
 
Date/Time
EDT
Temp
°C
App
Temp
°C
Dew
Point
Rel
Hum
%
Delta-T
°C
Wind Press
QNH
hPa
Press
MSL
hPa
Rain
since 9 am
mm
Dir
 
Spd
km/h
Gust
km/h
Spd
kts
Gust
kts
26/11:30pm 14.9 14.8 13.8 93 0.6 ENE 7 7 4 4 1011.7 1011.7 0.0
26/11:00pm 15.3 14.9 14.2 93 0.6 E 9 9 5 5 1011.9 1011.9 0.0
26/10:30pm 15.9 15.2 14.3 90 0.9 ENE 11 11 6 6 1011.9 1011.9 0.0
26/10:00pm 16.3 16.1 14.7 90 0.9 E 9 13 5 7 1011.7 1011.7 0.0
26/09:30pm 17.2 16.7 14.8 86 1.4 ENE 11 13 6 7 1011.5 1011.5 0.0
26/09:00pm 18.0 18.4 15.3 84 1.6 ENE 7 7 4 4 1011.0 1011.0 0.0
26/08:30pm 18.5 18.6 15.4 82 1.8 SE 9 13 5 7 1010.6 1010.6 0.0
26/08:00pm 18.9 18.6 15.4 80 2.1 SE 11 17 6 9 1010.1 1010.1 0.0
26/07:30pm 19.6 18.4 16.1 80 2.1 SSE 17 20 9 11 1009.5 1009.5 0.0
26/07:00pm 20.5 19.3 16.1 76 2.6 SSE 17 22 9 12 1009.1 1009.1 0.0
26/06:30pm 21.5 20.6 16.9 75 2.8 SSE 17 24 9 13 1008.9 1008.9 0.0
26/06:00pm 21.8 20.8 16.5 72 3.2 SSE 17 22 9 12 1008.6 1008.6 0.0
26/05:30pm 21.9 20.5 16.6 72 3.2 SSE 19 26 10 14 1008.7 1008.7 0.0
26/05:00pm 23.1 21.6 16.2 65 4.2 SW 19 26 10 14 1008.7 1008.7 0.0
26/04:30pm 23.2 20.6 15.0 60 4.9 W 22 33 12 18 1008.5 1008.5 0.0
26/04:00pm 23.7 21.0 15.7 61 4.8 W 24 33 13 18 1008.5 1008.5 0.0
26/03:30pm 23.9 21.7 14.9 57 5.4 W 20 32 11 17 1008.6 1008.6 0.0
26/03:00pm 23.9 21.2 14.6 56 5.5 WSW 22 35 12 19 1008.6 1008.6 0.0
26/02:30pm 23.7 22.1 14.9 57 5.2 WSW 17 26 9 14 1008.8 1008.8 0.0
26/02:00pm 24.6 20.8 14.7 54 5.9 W 28 37 15 20 1008.8 1008.8 0.0
26/01:30pm 24.6 21.8 16.3 60 5.1 WSW 26 39 14 21 1009.0 1009.0 0.0
26/01:00pm 24.1 20.4 16.1 61 4.9 WSW 30 39 16 21 1009.0 1009.0 0.0
26/12:30pm 23.5 21.4 16.1 63 4.5 WSW 22 35 12 19 1009.2 1009.2 0.0
26/12:00pm 22.7 19.4 16.0 66 4.1 WSW 28 41 15 22 1009.5 1009.5 0.0
26/11:30am 20.9 16.6 15.4 71 3.3 WSW 32 43 17 23 1009.8 1009.8 0.0
26/11:00am 20.8 17.3 15.6 72 3.1 W 28 35 15 19 1009.8 1009.8 0.0
26/10:30am 19.3 15.4 15.6 79 2.2 W 30 41 16 22 1009.6 1009.6 0.0
26/10:00am 18.6 15.5 15.5 82 1.8 W 26 33 14 18 1009.5 1009.5 0.0
26/09:30am 18.0 14.7 15.1 83 1.7 W 26 37 14 20 1009.3 1009.3 0.0
26/09:00am 17.5 14.2 15.0 85 1.5 W 26 35 14 19 1009.3 1009.3 0.0
26/08:30am 17.3 15.1 14.9 86 1.4 W 20 30 11 16 1008.8 1008.8 0.0
26/08:00am 15.8 13.6 14.3 91 0.9 WSW 19 26 10 14 1008.7 1008.7 0.0
26/07:30am 15.6 14.5 14.3 92 0.7 WNW 13 17 7 9 1008.6 1008.6 0.0
26/07:00am 15.4 15.1 14.4 94 0.6 WNW 9 13 5 7 1008.4 1008.4 0.0
26/06:30am 14.4 13.1 13.8 96 0.3 W 13 19 7 10 1008.2 1008.2 0.0
26/06:00am 14.3 13.0 13.7 96 0.3 WNW 13 15 7 8 1008.0 1008.0 0.0
26/05:30am 13.9 12.9 13.4 97 0.3 WNW 11 11 6 6 1007.9 1007.9 0.0
26/05:00am 13.3 12.4 12.7 96 0.3 WNW 9 11 5 6 1008.0 1008.0 0.0
26/04:30am 13.4 12.2 12.8 96 0.3 WNW 11 13 6 7 1008.0 1008.0 0.0

Other Formats:

Comma delimited format used in spreadsheet applications
http://www.bom.gov.au/fwo/IDV60801/IDV60801.94907.axf

JavaScript Object Notation format (JSON) in row-major order
http://www.bom.gov.au/fwo/IDV60801/IDV60801.94907.json